sensor_id;sensor_type;location;lat;lon;timestamp;P1;durP1;ratioP1;P2;durP2;ratioP2
40314;SDS011;26021;45.640;11.302;2023-08-01T00:02:19;3.75;;;2.90;;
40314;SDS011;26021;45.640;11.302;2023-08-01T00:04:45;4.80;;;3.33;;
40314;SDS011;26021;45.640;11.302;2023-08-01T00:07:10;2.95;;;2.75;;
40314;SDS011;26021;45.640;11.302;2023-08-01T00:09:35;4.32;;;3.00;;
40314;SDS011;26021;45.640;11.302;2023-08-01T00:12:01;2.63;;;2.42;;
40314;SDS011;26021;45.640;11.302;2023-08-01T00:14:26;4.47;;;2.83;;
40314;SDS011;26021;45.640;11.302;2023-08-01T00:16:52;4.53;;;2.95;;
40314;SDS011;26021;45.640;11.302;2023-08-01T00:19:17;2.80;;;2.60;;
40314;SDS011;26021;45.640;11.302;2023-08-01T00:21:43;3.60;;;2.78;;
40314;SDS011;26021;45.640;11.302;2023-08-01T00:24:09;4.70;;;2.80;;
40314;SDS011;26021;45.640;11.302;2023-08-01T00:26:34;3.43;;;3.03;;
40314;SDS011;26021;45.640;11.302;2023-08-01T00:29:00;3.03;;;2.72;;
40314;SDS011;26021;45.640;11.302;2023-08-01T00:31:25;5.28;;;3.08;;
40314;SDS011;26021;45.640;11.302;2023-08-01T00:33:51;2.65;;;2.38;;
40314;SDS011;26021;45.640;11.302;2023-08-01T00:36:16;3.65;;;2.58;;
40314;SDS011;26021;45.640;11.302;2023-08-01T00:38:41;4.50;;;2.80;;
40314;SDS011;26021;45.640;11.302;2023-08-01T00:41:08;3.80;;;2.63;;
40314;SDS011;26021;45.640;11.302;2023-08-01T00:43:34;5.00;;;2.55;;
40314;SDS011;26021;45.640;11.302;2023-08-01T00:46:00;2.80;;;2.58;;
40314;SDS011;26021;45.640;11.302;2023-08-01T00:48:28;3.47;;;2.70;;
40314;SDS011;26021;45.640;11.302;2023-08-01T00:50:54;4.18;;;3.10;;
40314;SDS011;26021;45.640;11.302;2023-08-01T00:53:21;3.72;;;2.70;;
40314;SDS011;26021;45.640;11.302;2023-08-01T00:55:47;2.80;;;2.60;;
40314;SDS011;26021;45.640;11.302;2023-08-01T00:58:13;2.70;;;2.50;;
40314;SDS011;26021;45.640;11.302;2023-08-01T01:00:38;2.78;;;2.58;;
40314;SDS011;26021;45.640;11.302;2023-08-01T01:03:04;3.42;;;3.13;;
40314;SDS011;26021;45.640;11.302;2023-08-01T01:05:35;3.40;;;3.10;;
40314;SDS011;26021;45.640;11.302;2023-08-01T01:08:03;3.17;;;2.90;;
40314;SDS011;26021;45.640;11.302;2023-08-01T01:10:30;3.35;;;2.90;;
40314;SDS011;26021;45.640;11.302;2023-08-01T01:12:56;2.50;;;2.30;;
40314;SDS011;26021;45.640;11.302;2023-08-01T01:15:21;5.22;;;2.40;;
40314;SDS011;26021;45.640;11.302;2023-08-01T01:17:47;4.65;;;2.60;;
40314;SDS011;26021;45.640;11.302;2023-08-01T01:20:12;3.00;;;2.80;;
40314;SDS011;26021;45.640;11.302;2023-08-01T01:22:38;2.92;;;2.55;;
40314;SDS011;26021;45.640;11.302;2023-08-01T01:25:05;6.13;;;2.47;;
40314;SDS011;26021;45.640;11.302;2023-08-01T01:27:32;3.53;;;2.58;;
40314;SDS011;26021;45.640;11.302;2023-08-01T01:29:59;2.83;;;2.55;;
40314;SDS011;26021;45.640;11.302;2023-08-01T01:32:26;3.58;;;2.55;;
40314;SDS011;26021;45.640;11.302;2023-08-01T01:34:53;3.28;;;2.50;;
40314;SDS011;26021;45.640;11.302;2023-08-01T01:37:18;3.90;;;2.60;;
40314;SDS011;26021;45.640;11.302;2023-08-01T01:39:44;3.58;;;2.60;;
40314;SDS011;26021;45.640;11.302;2023-08-01T01:42:09;3.45;;;2.58;;
40314;SDS011;26021;45.640;11.302;2023-08-01T01:44:35;2.95;;;2.38;;
40314;SDS011;26021;45.640;11.302;2023-08-01T01:47:00;3.85;;;2.80;;
40314;SDS011;26021;45.640;11.302;2023-08-01T01:49:26;4.72;;;2.40;;
40314;SDS011;26021;45.640;11.302;2023-08-01T01:51:51;4.18;;;2.60;;
40314;SDS011;26021;45.640;11.302;2023-08-01T01:54:16;3.30;;;2.80;;
40314;SDS011;26021;45.640;11.302;2023-08-01T01:56:42;2.58;;;2.38;;
40314;SDS011;26021;45.640;11.302;2023-08-01T01:59:07;6.90;;;2.80;;
40314;SDS011;26021;45.640;11.302;2023-08-01T02:01:33;2.75;;;2.55;;
40314;SDS011;26021;45.640;11.302;2023-08-01T02:03:58;3.67;;;2.58;;
40314;SDS011;26021;45.640;11.302;2023-08-01T02:06:23;3.60;;;2.58;;
40314;SDS011;26021;45.640;11.302;2023-08-01T02:08:49;2.90;;;2.55;;
40314;SDS011;26021;45.640;11.302;2023-08-01T02:11:14;3.65;;;2.60;;
40314;SDS011;26021;45.640;11.302;2023-08-01T02:13:39;3.90;;;2.42;;
40314;SDS011;26021;45.640;11.302;2023-08-01T02:16:05;3.30;;;2.67;;
40314;SDS011;26021;45.640;11.302;2023-08-01T02:18:31;4.07;;;2.70;;
40314;SDS011;26021;45.640;11.302;2023-08-01T02:20:56;4.07;;;2.90;;
40314;SDS011;26021;45.640;11.302;2023-08-01T02:23:21;3.55;;;2.47;;
40314;SDS011;26021;45.640;11.302;2023-08-01T02:25:47;3.53;;;2.90;;
40314;SDS011;26021;45.640;11.302;2023-08-01T02:28:12;3.63;;;2.80;;
40314;SDS011;26021;45.640;11.302;2023-08-01T02:30:38;3.70;;;2.60;;
40314;SDS011;26021;45.640;11.302;2023-08-01T02:33:03;2.92;;;2.72;;
40314;SDS011;26021;45.640;11.302;2023-08-01T02:35:29;3.72;;;2.83;;
40314;SDS011;26021;45.640;11.302;2023-08-01T02:37:55;2.83;;;2.63;;
40314;SDS011;26021;45.640;11.302;2023-08-01T02:40:20;5.93;;;2.70;;
40314;SDS011;26021;45.640;11.302;2023-08-01T02:42:46;4.65;;;2.78;;
40314;SDS011;26021;45.640;11.302;2023-08-01T02:45:12;3.83;;;2.83;;
40314;SDS011;26021;45.640;11.302;2023-08-01T02:47:37;3.83;;;2.55;;
40314;SDS011;26021;45.640;11.302;2023-08-01T02:50:02;4.17;;;2.73;;
40314;SDS011;26021;45.640;11.302;2023-08-01T02:52:28;4.47;;;2.80;;
40314;SDS011;26021;45.640;11.302;2023-08-01T02:54:53;2.60;;;2.40;;
40314;SDS011;26021;45.640;11.302;2023-08-01T02:57:19;3.35;;;2.60;;
40314;SDS011;26021;45.640;11.302;2023-08-01T02:59:44;3.10;;;2.80;;
40314;SDS011;26021;45.640;11.302;2023-08-01T03:02:10;3.30;;;3.00;;
40314;SDS011;26021;45.640;11.302;2023-08-01T03:04:35;3.17;;;2.58;;
40314;SDS011;26021;45.640;11.302;2023-08-01T03:07:01;3.15;;;2.72;;
40314;SDS011;26021;45.640;11.302;2023-08-01T03:09:26;5.07;;;3.03;;
40314;SDS011;26021;45.640;11.302;2023-08-01T03:11:51;6.53;;;2.83;;
40314;SDS011;26021;45.640;11.302;2023-08-01T03:14:17;3.53;;;2.90;;
40314;SDS011;26021;45.640;11.302;2023-08-01T03:16:42;3.35;;;2.72;;
40314;SDS011;26021;45.640;11.302;2023-08-01T03:19:08;3.03;;;2.83;;
40314;SDS011;26021;45.640;11.302;2023-08-01T03:21:34;3.35;;;2.60;;
40314;SDS011;26021;45.640;11.302;2023-08-01T03:24:00;2.80;;;2.60;;
40314;SDS011;26021;45.640;11.302;2023-08-01T03:26:26;3.15;;;2.92;;
40314;SDS011;26021;45.640;11.302;2023-08-01T03:28:55;3.33;;;3.08;;
40314;SDS011;26021;45.640;11.302;2023-08-01T03:31:24;3.63;;;2.85;;
40314;SDS011;26021;45.640;11.302;2023-08-01T03:33:49;3.17;;;2.88;;
40314;SDS011;26021;45.640;11.302;2023-08-01T03:36:15;3.38;;;2.65;;
40314;SDS011;26021;45.640;11.302;2023-08-01T03:38:40;3.65;;;2.97;;
40314;SDS011;26021;45.640;11.302;2023-08-01T03:41:05;4.43;;;2.75;;
40314;SDS011;26021;45.640;11.302;2023-08-01T03:43:31;4.10;;;3.17;;
40314;SDS011;26021;45.640;11.302;2023-08-01T03:45:56;4.22;;;2.63;;
40314;SDS011;26021;45.640;11.302;2023-08-01T03:48:22;4.40;;;2.40;;
40314;SDS011;26021;45.640;11.302;2023-08-01T03:50:47;2.97;;;2.67;;
40314;SDS011;26021;45.640;11.302;2023-08-01T03:53:13;4.40;;;3.08;;
40314;SDS011;26021;45.640;11.302;2023-08-01T03:55:38;4.43;;;2.80;;
40314;SDS011;26021;45.640;11.302;2023-08-01T03:58:04;3.15;;;2.60;;
40314;SDS011;26021;45.640;11.302;2023-08-01T04:00:29;3.03;;;2.83;;
40314;SDS011;26021;45.640;11.302;2023-08-01T04:02:58;3.72;;;2.50;;
40314;SDS011;26021;45.640;11.302;2023-08-01T04:05:23;4.03;;;2.80;;
40314;SDS011;26021;45.640;11.302;2023-08-01T04:07:49;5.38;;;2.72;;
40314;SDS011;26021;45.640;11.302;2023-08-01T04:10:15;3.30;;;2.63;;
40314;SDS011;26021;45.640;11.302;2023-08-01T04:12:40;4.78;;;3.10;;
40314;SDS011;26021;45.640;11.302;2023-08-01T04:15:07;3.28;;;3.00;;
40314;SDS011;26021;45.640;11.302;2023-08-01T04:17:33;3.33;;;3.00;;
40314;SDS011;26021;45.640;11.302;2023-08-01T04:19:59;5.20;;;2.65;;
40314;SDS011;26021;45.640;11.302;2023-08-01T04:22:24;6.35;;;3.10;;
40314;SDS011;26021;45.640;11.302;2023-08-01T04:24:50;3.22;;;2.92;;
40314;SDS011;26021;45.640;11.302;2023-08-01T04:27:15;5.18;;;3.03;;
40314;SDS011;26021;45.640;11.302;2023-08-01T04:29:41;3.83;;;2.97;;
40314;SDS011;26021;45.640;11.302;2023-08-01T04:32:06;4.22;;;2.80;;
40314;SDS011;26021;45.640;11.302;2023-08-01T04:34:32;4.57;;;2.70;;
40314;SDS011;26021;45.640;11.302;2023-08-01T04:36:57;3.22;;;2.50;;
40314;SDS011;26021;45.640;11.302;2023-08-01T04:39:23;2.97;;;2.60;;
40314;SDS011;26021;45.640;11.302;2023-08-01T04:41:48;5.72;;;3.22;;
40314;SDS011;26021;45.640;11.302;2023-08-01T04:44:15;4.18;;;2.80;;
40314;SDS011;26021;45.640;11.302;2023-08-01T04:46:40;6.00;;;3.05;;
40314;SDS011;26021;45.640;11.302;2023-08-01T04:49:07;4.90;;;2.97;;
40314;SDS011;26021;45.640;11.302;2023-08-01T04:51:32;5.85;;;3.08;;
40314;SDS011;26021;45.640;11.302;2023-08-01T04:53:57;3.53;;;3.03;;
40314;SDS011;26021;45.640;11.302;2023-08-01T04:56:23;2.85;;;2.65;;
40314;SDS011;26021;45.640;11.302;2023-08-01T04:58:48;3.95;;;3.08;;
40314;SDS011;26021;45.640;11.302;2023-08-01T05:01:14;4.68;;;3.00;;
40314;SDS011;26021;45.640;11.302;2023-08-01T05:03:39;3.88;;;3.00;;
40314;SDS011;26021;45.640;11.302;2023-08-01T05:06:05;4.38;;;3.08;;
40314;SDS011;26021;45.640;11.302;2023-08-01T05:08:30;3.53;;;3.00;;
40314;SDS011;26021;45.640;11.302;2023-08-01T05:10:56;4.82;;;3.25;;
40314;SDS011;26021;45.640;11.302;2023-08-01T05:13:21;5.65;;;3.08;;
40314;SDS011;26021;45.640;11.302;2023-08-01T05:15:47;3.17;;;2.97;;
40314;SDS011;26021;45.640;11.302;2023-08-01T05:18:13;5.05;;;3.20;;
40314;SDS011;26021;45.640;11.302;2023-08-01T05:20:39;6.95;;;3.47;;
40314;SDS011;26021;45.640;11.302;2023-08-01T05:23:04;4.93;;;3.38;;
40314;SDS011;26021;45.640;11.302;2023-08-01T05:25:30;4.40;;;3.67;;
40314;SDS011;26021;45.640;11.302;2023-08-01T05:27:55;6.90;;;3.90;;
40314;SDS011;26021;45.640;11.302;2023-08-01T05:30:21;5.53;;;3.13;;
40314;SDS011;26021;45.640;11.302;2023-08-01T05:32:46;6.65;;;4.88;;
40314;SDS011;26021;45.640;11.302;2023-08-01T05:35:12;9.15;;;5.28;;
40314;SDS011;26021;45.640;11.302;2023-08-01T05:37:37;11.52;;;4.78;;
40314;SDS011;26021;45.640;11.302;2023-08-01T05:40:03;8.85;;;5.20;;
40314;SDS011;26021;45.640;11.302;2023-08-01T05:42:29;8.60;;;5.03;;
40314;SDS011;26021;45.640;11.302;2023-08-01T05:44:54;6.30;;;4.97;;
40314;SDS011;26021;45.640;11.302;2023-08-01T05:47:19;7.30;;;5.65;;
40314;SDS011;26021;45.640;11.302;2023-08-01T05:49:45;6.05;;;4.80;;
40314;SDS011;26021;45.640;11.302;2023-08-01T05:52:10;7.45;;;5.07;;
40314;SDS011;26021;45.640;11.302;2023-08-01T05:54:35;8.25;;;5.90;;
40314;SDS011;26021;45.640;11.302;2023-08-01T05:57:01;7.03;;;5.30;;
40314;SDS011;26021;45.640;11.302;2023-08-01T05:59:26;6.47;;;5.38;;
40314;SDS011;26021;45.640;11.302;2023-08-01T06:01:52;6.22;;;4.93;;
40314;SDS011;26021;45.640;11.302;2023-08-01T06:04:17;5.95;;;4.93;;
40314;SDS011;26021;45.640;11.302;2023-08-01T06:06:43;7.40;;;4.97;;
40314;SDS011;26021;45.640;11.302;2023-08-01T06:09:08;5.88;;;5.22;;
40314;SDS011;26021;45.640;11.302;2023-08-01T06:11:33;6.90;;;4.85;;
40314;SDS011;26021;45.640;11.302;2023-08-01T06:13:59;5.80;;;5.20;;
40314;SDS011;26021;45.640;11.302;2023-08-01T06:16:25;5.97;;;5.10;;
40314;SDS011;26021;45.640;11.302;2023-08-01T06:18:50;6.65;;;4.90;;
40314;SDS011;26021;45.640;11.302;2023-08-01T06:21:16;5.75;;;5.15;;
40314;SDS011;26021;45.640;11.302;2023-08-01T06:23:41;6.18;;;4.60;;
40314;SDS011;26021;45.640;11.302;2023-08-01T06:26:07;5.53;;;4.53;;
40314;SDS011;26021;45.640;11.302;2023-08-01T06:28:32;6.55;;;5.10;;
40314;SDS011;26021;45.640;11.302;2023-08-01T06:30:57;7.68;;;5.15;;
40314;SDS011;26021;45.640;11.302;2023-08-01T06:33:23;6.78;;;5.03;;
40314;SDS011;26021;45.640;11.302;2023-08-01T06:35:49;6.80;;;5.80;;
40314;SDS011;26021;45.640;11.302;2023-08-01T06:38:14;8.32;;;4.18;;
40314;SDS011;26021;45.640;11.302;2023-08-01T06:40:39;7.05;;;4.90;;
40314;SDS011;26021;45.640;11.302;2023-08-01T06:43:05;4.97;;;4.47;;
40314;SDS011;26021;45.640;11.302;2023-08-01T06:45:30;5.65;;;5.10;;
40314;SDS011;26021;45.640;11.302;2023-08-01T06:47:56;5.75;;;4.53;;
40314;SDS011;26021;45.640;11.302;2023-08-01T06:50:21;5.85;;;4.70;;
40314;SDS011;26021;45.640;11.302;2023-08-01T06:52:46;5.55;;;4.40;;
40314;SDS011;26021;45.640;11.302;2023-08-01T06:55:12;6.55;;;4.57;;
40314;SDS011;26021;45.640;11.302;2023-08-01T06:57:37;5.22;;;4.50;;
40314;SDS011;26021;45.640;11.302;2023-08-01T07:00:03;5.60;;;4.47;;
40314;SDS011;26021;45.640;11.302;2023-08-01T07:02:28;6.32;;;4.32;;
40314;SDS011;26021;45.640;11.302;2023-08-01T07:04:54;8.45;;;4.45;;
40314;SDS011;26021;45.640;11.302;2023-08-01T07:07:19;6.18;;;4.30;;
40314;SDS011;26021;45.640;11.302;2023-08-01T07:09:44;5.88;;;4.53;;
40314;SDS011;26021;45.640;11.302;2023-08-01T07:12:10;5.28;;;4.03;;
40314;SDS011;26021;45.640;11.302;2023-08-01T07:14:35;4.25;;;3.78;;
40314;SDS011;26021;45.640;11.302;2023-08-01T07:17:01;5.38;;;3.85;;
40314;SDS011;26021;45.640;11.302;2023-08-01T07:19:26;5.50;;;4.05;;
40314;SDS011;26021;45.640;11.302;2023-08-01T07:21:52;7.55;;;4.18;;
40314;SDS011;26021;45.640;11.302;2023-08-01T07:24:17;5.53;;;4.45;;
40314;SDS011;26021;45.640;11.302;2023-08-01T07:26:42;6.22;;;4.43;;
40314;SDS011;26021;45.640;11.302;2023-08-01T07:29:08;6.45;;;4.45;;
40314;SDS011;26021;45.640;11.302;2023-08-01T07:31:35;4.75;;;4.25;;
40314;SDS011;26021;45.640;11.302;2023-08-01T07:34:01;5.07;;;3.85;;
40314;SDS011;26021;45.640;11.302;2023-08-01T07:36:27;6.97;;;4.05;;
40314;SDS011;26021;45.640;11.302;2023-08-01T07:38:53;6.10;;;3.78;;
40314;SDS011;26021;45.640;11.302;2023-08-01T07:41:21;6.28;;;4.22;;
40314;SDS011;26021;45.640;11.302;2023-08-01T07:43:46;5.55;;;3.65;;
40314;SDS011;26021;45.640;11.302;2023-08-01T07:46:12;4.10;;;3.80;;
40314;SDS011;26021;45.640;11.302;2023-08-01T07:48:38;6.55;;;4.63;;
40314;SDS011;26021;45.640;11.302;2023-08-01T07:51:03;5.93;;;3.95;;
40314;SDS011;26021;45.640;11.302;2023-08-01T07:53:30;6.82;;;3.65;;
40314;SDS011;26021;45.640;11.302;2023-08-01T07:55:56;5.63;;;3.97;;
40314;SDS011;26021;45.640;11.302;2023-08-01T07:58:21;6.07;;;3.40;;
40314;SDS011;26021;45.640;11.302;2023-08-01T08:00:47;4.38;;;3.40;;
40314;SDS011;26021;45.640;11.302;2023-08-01T08:03:13;7.95;;;4.00;;
40314;SDS011;26021;45.640;11.302;2023-08-01T08:05:39;4.38;;;3.70;;
40314;SDS011;26021;45.640;11.302;2023-08-01T08:08:05;4.55;;;3.70;;
40314;SDS011;26021;45.640;11.302;2023-08-01T08:10:31;4.60;;;3.65;;
40314;SDS011;26021;45.640;11.302;2023-08-01T08:12:56;7.60;;;4.07;;
40314;SDS011;26021;45.640;11.302;2023-08-01T08:15:22;3.97;;;3.40;;
40314;SDS011;26021;45.640;11.302;2023-08-01T08:17:48;4.53;;;3.20;;
40314;SDS011;26021;45.640;11.302;2023-08-01T08:20:14;3.65;;;3.35;;
40314;SDS011;26021;45.640;11.302;2023-08-01T08:22:39;9.75;;;7.15;;
40314;SDS011;26021;45.640;11.302;2023-08-01T08:25:05;4.18;;;3.40;;
40314;SDS011;26021;45.640;11.302;2023-08-01T08:27:30;4.97;;;3.20;;
40314;SDS011;26021;45.640;11.302;2023-08-01T08:29:56;3.63;;;2.83;;
40314;SDS011;26021;45.640;11.302;2023-08-01T08:32:21;3.78;;;3.33;;
40314;SDS011;26021;45.640;11.302;2023-08-01T08:34:47;4.85;;;3.58;;
40314;SDS011;26021;45.640;11.302;2023-08-01T08:37:12;4.97;;;3.15;;
40314;SDS011;26021;45.640;11.302;2023-08-01T08:39:37;4.93;;;2.95;;
40314;SDS011;26021;45.640;11.302;2023-08-01T08:42:03;2.45;;;2.28;;
40314;SDS011;26021;45.640;11.302;2023-08-01T08:44:30;5.18;;;3.20;;
40314;SDS011;26021;45.640;11.302;2023-08-01T08:47:02;4.05;;;2.60;;
40314;SDS011;26021;45.640;11.302;2023-08-01T08:49:31;4.25;;;3.13;;
40314;SDS011;26021;45.640;11.302;2023-08-01T08:51:57;3.10;;;2.47;;
40314;SDS011;26021;45.640;11.302;2023-08-01T08:54:23;4.13;;;2.97;;
40314;SDS011;26021;45.640;11.302;2023-08-01T08:56:49;3.55;;;2.92;;
40314;SDS011;26021;45.640;11.302;2023-08-01T08:59:15;3.70;;;2.85;;
40314;SDS011;26021;45.640;11.302;2023-08-01T09:01:41;4.45;;;2.88;;
40314;SDS011;26021;45.640;11.302;2023-08-01T09:04:06;4.85;;;3.20;;
40314;SDS011;26021;45.640;11.302;2023-08-01T09:06:37;3.70;;;3.00;;
40314;SDS011;26021;45.640;11.302;2023-08-01T09:09:11;4.75;;;4.18;;
40314;SDS011;26021;45.640;11.302;2023-08-01T09:11:41;3.70;;;3.33;;
40314;SDS011;26021;45.640;11.302;2023-08-01T09:14:10;4.53;;;3.35;;
40314;SDS011;26021;45.640;11.302;2023-08-01T09:16:36;4.18;;;3.00;;
40314;SDS011;26021;45.640;11.302;2023-08-01T09:19:02;3.10;;;2.30;;
40314;SDS011;26021;45.640;11.302;2023-08-01T09:21:30;2.83;;;2.63;;
40314;SDS011;26021;45.640;11.302;2023-08-01T09:23:58;2.70;;;2.50;;
40314;SDS011;26021;45.640;11.302;2023-08-01T09:28:58;2.33;;;2.13;;
40314;SDS011;26021;45.640;11.302;2023-08-01T09:31:27;4.40;;;2.58;;
40314;SDS011;26021;45.640;11.302;2023-08-01T09:33:58;2.65;;;2.45;;
40314;SDS011;26021;45.640;11.302;2023-08-01T09:36:24;3.00;;;2.70;;
40314;SDS011;26021;45.640;11.302;2023-08-01T09:38:50;2.47;;;2.28;;
40314;SDS011;26021;45.640;11.302;2023-08-01T09:41:19;3.78;;;2.75;;
40314;SDS011;26021;45.640;11.302;2023-08-01T09:43:46;3.78;;;2.55;;
40314;SDS011;26021;45.640;11.302;2023-08-01T09:46:13;3.17;;;2.80;;
40314;SDS011;26021;45.640;11.302;2023-08-01T09:48:39;5.68;;;2.78;;
40314;SDS011;26021;45.640;11.302;2023-08-01T09:51:11;2.53;;;2.33;;
40314;SDS011;26021;45.640;11.302;2023-08-01T09:56:20;2.97;;;2.40;;
40314;SDS011;26021;45.640;11.302;2023-08-01T09:58:47;4.15;;;2.25;;
40314;SDS011;26021;45.640;11.302;2023-08-01T10:01:17;2.65;;;2.45;;
40314;SDS011;26021;45.640;11.302;2023-08-01T10:03:50;2.40;;;2.13;;
40314;SDS011;26021;45.640;11.302;2023-08-01T10:06:17;3.42;;;2.53;;
40314;SDS011;26021;45.640;11.302;2023-08-01T10:08:48;2.20;;;2.10;;
40314;SDS011;26021;45.640;11.302;2023-08-01T10:11:17;3.78;;;2.58;;
40314;SDS011;26021;45.640;11.302;2023-08-01T10:13:44;3.00;;;2.70;;
40314;SDS011;26021;45.640;11.302;2023-08-01T10:16:11;2.80;;;2.60;;
40314;SDS011;26021;45.640;11.302;2023-08-01T10:18:37;2.90;;;2.67;;
40314;SDS011;26021;45.640;11.302;2023-08-01T10:21:04;3.08;;;2.80;;
40314;SDS011;26021;45.640;11.302;2023-08-01T10:23:32;2.72;;;2.53;;
40314;SDS011;26021;45.640;11.302;2023-08-01T10:25:58;3.92;;;3.17;;
40314;SDS011;26021;45.640;11.302;2023-08-01T10:28:36;6.32;;;4.03;;
40314;SDS011;26021;45.640;11.302;2023-08-01T10:31:20;4.65;;;3.50;;
40314;SDS011;26021;45.640;11.302;2023-08-01T10:33:47;3.88;;;3.20;;
40314;SDS011;26021;45.640;11.302;2023-08-01T10:36:17;3.85;;;3.42;;
40314;SDS011;26021;45.640;11.302;2023-08-01T10:38:55;4.18;;;3.80;;
40314;SDS011;26021;45.640;11.302;2023-08-01T10:41:25;3.83;;;3.53;;
40314;SDS011;26021;45.640;11.302;2023-08-01T10:43:51;4.80;;;3.60;;
40314;SDS011;26021;45.640;11.302;2023-08-01T10:46:17;4.10;;;3.70;;
40314;SDS011;26021;45.640;11.302;2023-08-01T10:48:52;4.88;;;4.32;;
40314;SDS011;26021;45.640;11.302;2023-08-01T10:51:18;4.53;;;4.20;;
40314;SDS011;26021;45.640;11.302;2023-08-01T10:53:44;5.20;;;4.60;;
40314;SDS011;26021;45.640;11.302;2023-08-01T10:56:16;4.68;;;4.28;;
40314;SDS011;26021;45.640;11.302;2023-08-01T10:58:42;5.07;;;4.47;;
40314;SDS011;26021;45.640;11.302;2023-08-01T11:01:08;5.53;;;4.95;;
40314;SDS011;26021;45.640;11.302;2023-08-01T11:03:37;5.53;;;4.35;;
40314;SDS011;26021;45.640;11.302;2023-08-01T11:06:03;5.35;;;4.53;;
40314;SDS011;26021;45.640;11.302;2023-08-01T11:08:38;6.40;;;4.63;;
40314;SDS011;26021;45.640;11.302;2023-08-01T11:11:05;5.63;;;5.13;;
40314;SDS011;26021;45.640;11.302;2023-08-01T11:13:32;5.88;;;5.38;;
40314;SDS011;26021;45.640;11.302;2023-08-01T11:16:00;5.05;;;4.47;;
40314;SDS011;26021;45.640;11.302;2023-08-01T11:18:27;4.85;;;4.45;;
40314;SDS011;26021;45.640;11.302;2023-08-01T11:20:53;5.28;;;4.78;;
40314;SDS011;26021;45.640;11.302;2023-08-01T11:23:18;4.85;;;4.45;;
40314;SDS011;26021;45.640;11.302;2023-08-01T11:25:44;4.55;;;3.92;;
40314;SDS011;26021;45.640;11.302;2023-08-01T11:28:11;4.78;;;4.28;;
40314;SDS011;26021;45.640;11.302;2023-08-01T11:30:38;5.18;;;4.10;;
40314;SDS011;26021;45.640;11.302;2023-08-01T11:33:23;6.40;;;4.07;;
40314;SDS011;26021;45.640;11.302;2023-08-01T11:35:52;3.72;;;3.42;;
40314;SDS011;26021;45.640;11.302;2023-08-01T11:38:25;3.88;;;3.58;;
40314;SDS011;26021;45.640;11.302;2023-08-01T11:40:51;3.95;;;3.45;;
40314;SDS011;26021;45.640;11.302;2023-08-01T11:43:17;5.15;;;3.78;;
40314;SDS011;26021;45.640;11.302;2023-08-01T11:45:52;4.63;;;3.78;;
40314;SDS011;26021;45.640;11.302;2023-08-01T11:48:20;5.03;;;3.70;;
40314;SDS011;26021;45.640;11.302;2023-08-01T11:50:47;4.03;;;3.70;;
40314;SDS011;26021;45.640;11.302;2023-08-01T11:53:21;4.90;;;3.70;;
40314;SDS011;26021;45.640;11.302;2023-08-01T11:55:48;4.00;;;3.70;;
40314;SDS011;26021;45.640;11.302;2023-08-01T11:58:14;5.53;;;3.70;;
40314;SDS011;26021;45.640;11.302;2023-08-01T12:00:40;4.82;;;4.15;;
40314;SDS011;26021;45.640;11.302;2023-08-01T12:03:07;4.60;;;4.20;;
40314;SDS011;26021;45.640;11.302;2023-08-01T12:05:38;6.55;;;4.55;;
40314;SDS011;26021;45.640;11.302;2023-08-01T12:08:09;5.00;;;4.63;;
40314;SDS011;26021;45.640;11.302;2023-08-01T12:10:37;4.60;;;4.20;;
40314;SDS011;26021;45.640;11.302;2023-08-01T12:13:05;5.40;;;4.03;;
40314;SDS011;26021;45.640;11.302;2023-08-01T12:15:30;5.53;;;4.10;;
40314;SDS011;26021;45.640;11.302;2023-08-01T12:17:56;5.38;;;4.20;;
40314;SDS011;26021;45.640;11.302;2023-08-01T12:20:22;4.05;;;3.75;;
40314;SDS011;26021;45.640;11.302;2023-08-01T12:22:47;5.22;;;4.13;;
40314;SDS011;26021;45.640;11.302;2023-08-01T12:25:13;4.50;;;3.95;;
40314;SDS011;26021;45.640;11.302;2023-08-01T12:27:38;5.07;;;4.20;;
40314;SDS011;26021;45.640;11.302;2023-08-01T12:30:04;4.60;;;4.20;;
40314;SDS011;26021;45.640;11.302;2023-08-01T12:32:30;6.32;;;4.28;;
40314;SDS011;26021;45.640;11.302;2023-08-01T12:34:55;6.78;;;4.45;;
40314;SDS011;26021;45.640;11.302;2023-08-01T12:37:20;4.90;;;4.50;;
40314;SDS011;26021;45.640;11.302;2023-08-01T12:39:46;4.68;;;4.20;;
40314;SDS011;26021;45.640;11.302;2023-08-01T12:42:11;4.50;;;4.13;;
40314;SDS011;26021;45.640;11.302;2023-08-01T12:44:37;6.07;;;4.97;;
40314;SDS011;26021;45.640;11.302;2023-08-01T12:47:02;5.03;;;4.53;;
40314;SDS011;26021;45.640;11.302;2023-08-01T12:49:28;4.38;;;3.97;;
40314;SDS011;26021;45.640;11.302;2023-08-01T12:51:53;4.82;;;4.25;;
40314;SDS011;26021;45.640;11.302;2023-08-01T12:54:18;5.80;;;4.30;;
40314;SDS011;26021;45.640;11.302;2023-08-01T12:56:44;6.25;;;5.35;;
40314;SDS011;26021;45.640;11.302;2023-08-01T12:59:09;4.72;;;4.28;;
40314;SDS011;26021;45.640;11.302;2023-08-01T13:01:34;8.32;;;5.00;;
40314;SDS011;26021;45.640;11.302;2023-08-01T13:04:00;8.68;;;4.97;;
40314;SDS011;26021;45.640;11.302;2023-08-01T13:06:25;5.47;;;4.68;;
40314;SDS011;26021;45.640;11.302;2023-08-01T13:08:51;5.53;;;4.38;;
40314;SDS011;26021;45.640;11.302;2023-08-01T13:11:16;5.05;;;4.53;;
40314;SDS011;26021;45.640;11.302;2023-08-01T13:13:42;5.00;;;4.60;;
40314;SDS011;26021;45.640;11.302;2023-08-01T13:16:07;11.48;;;5.03;;
40314;SDS011;26021;45.640;11.302;2023-08-01T13:18:34;5.80;;;4.85;;
40314;SDS011;26021;45.640;11.302;2023-08-01T13:21:00;6.15;;;4.55;;
40314;SDS011;26021;45.640;11.302;2023-08-01T13:23:26;5.25;;;4.75;;
40314;SDS011;26021;45.640;11.302;2023-08-01T13:25:51;6.15;;;4.55;;
40314;SDS011;26021;45.640;11.302;2023-08-01T13:28:17;5.82;;;3.97;;
40314;SDS011;26021;45.640;11.302;2023-08-01T13:30:42;5.18;;;4.18;;
40314;SDS011;26021;45.640;11.302;2023-08-01T13:33:08;5.65;;;4.10;;
40314;SDS011;26021;45.640;11.302;2023-08-01T13:35:33;5.32;;;4.07;;
40314;SDS011;26021;45.640;11.302;2023-08-01T13:37:59;6.80;;;4.55;;
40314;SDS011;26021;45.640;11.302;2023-08-01T13:40:25;10.60;;;5.30;;
40314;SDS011;26021;45.640;11.302;2023-08-01T13:42:50;6.75;;;4.47;;
40314;SDS011;26021;45.640;11.302;2023-08-01T13:45:16;5.60;;;4.50;;
40314;SDS011;26021;45.640;11.302;2023-08-01T13:47:41;4.90;;;4.43;;
40314;SDS011;26021;45.640;11.302;2023-08-01T13:50:06;4.93;;;4.53;;
40314;SDS011;26021;45.640;11.302;2023-08-01T13:52:33;5.47;;;4.72;;
40314;SDS011;26021;45.640;11.302;2023-08-01T13:54:59;5.07;;;4.43;;
40314;SDS011;26021;45.640;11.302;2023-08-01T13:57:27;6.28;;;4.50;;
40314;SDS011;26021;45.640;11.302;2023-08-01T13:59:52;4.43;;;4.03;;
40314;SDS011;26021;45.640;11.302;2023-08-01T14:02:18;4.93;;;4.25;;
40314;SDS011;26021;45.640;11.302;2023-08-01T14:04:44;6.38;;;4.50;;
40314;SDS011;26021;45.640;11.302;2023-08-01T14:07:09;14.30;;;5.10;;
40314;SDS011;26021;45.640;11.302;2023-08-01T14:09:35;4.80;;;4.32;;
40314;SDS011;26021;45.640;11.302;2023-08-01T14:12:01;5.13;;;4.40;;
40314;SDS011;26021;45.640;11.302;2023-08-01T14:14:27;5.78;;;5.28;;
40314;SDS011;26021;45.640;11.302;2023-08-01T14:16:52;9.25;;;7.85;;
40314;SDS011;26021;45.640;11.302;2023-08-01T14:19:18;6.07;;;5.45;;
40314;SDS011;26021;45.640;11.302;2023-08-01T14:21:43;6.45;;;4.60;;
40314;SDS011;26021;45.640;11.302;2023-08-01T14:24:08;5.32;;;4.70;;
40314;SDS011;26021;45.640;11.302;2023-08-01T14:26:34;4.97;;;4.40;;
40314;SDS011;26021;45.640;11.302;2023-08-01T14:28:59;5.95;;;4.55;;
40314;SDS011;26021;45.640;11.302;2023-08-01T14:31:25;4.63;;;4.20;;
40314;SDS011;26021;45.640;11.302;2023-08-01T14:33:50;7.55;;;4.95;;